Time;durP1;ratioP1;P1;durP2;ratioP2;P2;SDS_P1;SDS_P2;PMS_P1;PMS_P2;Temp;Humidity;BMP_temperature;BMP_pressure;BME280_temperature;BME280_humidity;BME280_pressure;Samples;Min_cycle;Max_cycle;Signal;HPM_P1;HPM_P2
2024/01/22 06:02:29;;;;;;;44.10;22.60;;;;;;;-1.09;100.00;102256.14;111393;1249;22502;-46
2024/01/22 06:04:56;;;;;;;34.20;19.60;;;;;;;-1.04;100.00;102257.28;112324;1240;22217;-53
2024/01/22 06:07:29;;;;;;;35.20;20.20;;;;;;;-1.03;100.00;102261.89;111785;1241;24162;31
2024/01/22 06:09:55;;;;;;;33.50;18.70;;;;;;;-1.00;100.00;102263.44;112910;1249;22330;-46
2024/01/22 06:12:34;;;;;;;28.00;16.60;;;;;;;-0.97;100.00;102258.38;112895;1245;22394;-53
2024/01/22 06:15:01;;;;;;;31.90;17.50;;;;;;;-0.95;100.00;102259.52;112872;1239;22337;-47
2024/01/22 06:17:31;;;;;;;31.40;18.00;;;;;;;-0.92;100.00;102261.86;112788;1243;22959;-45
2024/01/22 06:19:59;;;;;;;29.90;17.70;;;;;;;-0.88;100.00;102265.94;112814;1239;23011;-53
2024/01/22 06:22:27;;;;;;;26.60;15.50;;;;;;;-0.86;100.00;102264.24;112750;1249;22389;-53
2024/01/22 06:24:55;;;;;;;26.40;16.00;;;;;;;-0.86;100.00;102255.47;112644;1249;23236;-46
2024/01/22 06:27:31;;;;;;;26.10;15.40;;;;;;;-0.91;100.00;102255.56;112381;1249;22520;-52
2024/01/22 06:30:09;;;;;;;30.60;15.90;;;;;;;-0.97;100.00;102260.97;112484;1249;22708;-48
2024/01/22 06:32:51;;;;;;;24.40;15.60;;;;;;;-1.05;100.00;102258.27;112301;1249;22369;-52
2024/01/22 06:39:43;;;;;;;25.70;15.80;;;;;;;-1.20;100.00;102266.02;112658;1249;22438;-46
2024/01/22 06:43:07;;;;;;;32.90;16.30;;;;;;;-1.22;100.00;102267.17;112615;1240;23167;-46
2024/01/22 06:46:12;;;;;;;30.00;16.60;;;;;;;-1.20;100.00;102280.19;112483;1249;22348;-45
2024/01/22 06:49:16;;;;;;;33.60;17.20;;;;;;;-1.22;100.00;102282.58;112618;1249;22407;-52
2024/01/22 06:52:29;;;;;;;28.10;15.80;;;;;;;-1.21;100.00;102284.97;112603;1249;22888;-46
2024/01/22 06:55:21;;;;;;;30.20;17.50;;;;;;;-1.14;100.00;102291.64;112833;1249;22440;-52
2024/01/22 06:57:48;;;;;;;26.10;16.50;;;;;;;-1.06;100.00;102299.13;112773;1239;23319;-53
2024/01/22 07:00:22;;;;;;;29.20;17.00;;;;;;;-0.98;100.00;102302.52;112800;1249;22403;-53
2024/01/22 07:03:05;;;;;;;23.90;14.90;;;;;;;-0.89;100.00;102308.36;112545;1249;22414;-52
2024/01/22 07:08:53;;;;;;;22.20;13.50;;;;;;;-0.65;100.00;102310.39;112674;1249;22363;-47
2024/01/22 07:11:47;;;;;;;22.30;14.40;;;;;;;-0.53;99.95;102307.85;112438;1249;22936;-52
2024/01/22 07:14:30;;;;;;;27.10;15.20;;;;;;;-0.44;99.69;102313.69;112322;1249;22444;-46
2024/01/22 07:17:06;;;;;;;21.30;12.90;;;;;;;-0.41;98.53;102309.84;112564;1248;22269;-48
2024/01/22 07:19:48;;;;;;;19.20;12.30;;;;;;;-0.41;97.12;102310.84;112358;1249;22533;-47
2024/01/22 07:23:03;;;;;;;18.00;11.60;;;;;;;-0.43;96.24;102309.65;112666;1249;22915;-46
2024/01/22 07:25:54;;;;;;;21.80;12.80;;;;;;;-0.43;95.58;102311.19;112448;1249;22419;-53
2024/01/22 07:28:45;;;;;;;21.50;13.30;;;;;;;-0.47;94.81;102310.38;112453;1249;22940;-45
2024/01/22 07:31:26;;;;;;;22.20;13.30;;;;;;;-0.53;94.53;102308.23;112336;1249;22210;-47
2024/01/22 07:33:57;;;;;;;25.00;13.60;;;;;;;-0.57;94.29;102308.48;112109;1249;240454;-53
2024/01/22 07:36:24;;;;;;;20.40;12.80;;;;;;;-0.63;94.09;102312.95;112527;1242;22383;-54
2024/01/22 07:39:02;;;;;;;22.90;13.50;;;;;;;-0.72;94.04;102314.92;112621;1249;22403;-46
2024/01/22 07:41:44;;;;;;;23.20;14.10;;;;;;;-0.75;94.81;102313.54;112642;1249;23436;-52
2024/01/22 07:44:15;;;;;;;;;;;;;;;-0.73;94.40;102312.45;112518;1249;22444;-52
2024/01/22 07:46:59;;;;;;;25.20;13.50;;;;;;;-0.74;94.73;102307.49;112775;1236;22351;-46
2024/01/22 07:49:34;;;;;;;27.70;14.60;;;;;;;-0.70;94.87;102309.33;112254;1249;22261;-47
2024/01/22 07:52:27;;;;;;;25.30;13.60;;;;;;;-0.66;94.65;102302.93;112659;1249;22431;-46
2024/01/22 07:55:07;;;;;;;21.40;12.40;;;;;;;-0.68;94.32;102295.62;112551;1246;22415;-53
2024/01/22 07:57:34;;;;;;;27.50;14.90;;;;;;;-0.70;94.92;102293.01;112653;1239;23044;-52
2024/01/22 08:00:11;;;;;;;22.70;12.80;;;;;;;-0.65;95.05;102292.08;112405;1249;22710;-45
2024/01/22 08:08:06;;;;;;;24.10;13.30;;;;;;;-0.49;94.76;102289.45;112364;1249;23119;-45
2024/01/22 08:11:41;;;;;;;24.90;13.10;;;;;;;-0.43;95.08;102285.50;112664;1241;23152;-50
2024/01/22 08:15:15;;;;;;;23.50;13.00;;;;;;;-0.28;94.86;102274.46;112671;1249;22223;-54
2024/01/22 08:18:19;;;;;;;23.00;13.00;;;;;;;-0.16;94.37;102273.94;112693;1246;22394;-48
2024/01/22 08:20:46;;;;;;;32.10;14.40;;;;;;;-0.15;93.97;102278.49;112586;1249;22357;-47
2024/01/22 08:23:13;;;;;;;28.20;14.20;;;;;;;-0.15;94.00;102274.57;112648;1239;22382;-52
2024/01/22 08:25:46;;;;;;;25.70;14.20;;;;;;;-0.11;94.20;102273.50;112560;1249;22262;-52
2024/01/22 08:28:13;;;;;;;25.90;14.70;;;;;;;-0.05;94.10;102270.36;112689;1239;22388;-53
2024/01/22 08:30:40;;;;;;;22.50;13.10;;;;;;;0.00;93.92;102267.63;112725;1249;22396;-46
2024/01/22 08:33:10;;;;;;;21.50;12.60;;;;;;;0.03;93.69;102266.64;112532;1240;22497;-46
2024/01/22 08:35:44;;;;;;;26.00;13.30;;;;;;;0.01;93.05;102267.17;112663;1249;22842;-46
2024/01/22 08:38:15;;;;;;;24.50;13.40;;;;;;;-0.04;92.98;102269.71;112601;1249;22165;-47
2024/01/22 08:40:46;;;;;;;22.20;14.40;;;;;;;0.00;93.91;102269.84;112310;1249;22465;-46
2024/01/22 08:43:33;;;;;;;22.60;13.30;;;;;;;0.08;93.67;102267.83;112449;1249;23197;-45
2024/01/22 08:46:51;;;;;;;26.90;14.60;;;;;;;0.19;93.63;102266.58;112391;1249;22786;-53
2024/01/22 08:50:39;;;;;;;23.20;13.90;;;;;;;0.29;93.41;102276.23;112392;1249;22308;-46
2024/01/22 08:54:15;;;;;;;24.00;13.30;;;;;;;0.49;93.32;102279.25;112271;1249;22380;-53
2024/01/22 08:58:06;;;;;;;24.90;14.20;;;;;;;0.49;92.06;102281.02;112269;1249;22506;-46
2024/01/22 09:04:48;;;;;;;25.60;14.70;;;;;;;0.50;92.14;102288.57;112571;1249;22367;-45
2024/01/22 09:07:24;;;;;;;23.80;13.40;;;;;;;0.51;92.13;102285.21;112617;1249;22438;-45
2024/01/22 09:10:07;;;;;;;28.40;15.20;;;;;;;0.53;91.44;102276.29;112329;1249;23307;-50
2024/01/22 09:12:34;;;;;;;27.20;14.80;;;;;;;0.53;91.48;102277.83;112684;1238;22845;-45
2024/01/22 09:15:06;;;;;;;26.40;15.60;;;;;;;0.58;91.66;102285.20;112658;1249;22296;-45
2024/01/22 09:17:41;;;;;;;25.30;15.30;;;;;;;0.63;91.28;102278.52;112454;1249;22514;-52
2024/01/22 09:20:11;;;;;;;24.20;15.00;;;;;;;0.71;91.32;102267.10;112819;1249;23160;-54
2024/01/22 09:22:41;;;;;;;;;;;;;;;0.83;90.74;102265.02;112684;1249;22362;-42
2024/01/22 09:25:15;;;;;;;31.80;16.50;;;;;;;0.89;90.43;102271.77;112791;1249;22388;-47
2024/01/22 09:27:49;;;;;;;24.90;14.80;;;;;;;0.87;90.07;102277.51;112345;1249;22412;-55
2024/01/22 09:30:16;;;;;;;30.80;15.40;;;;;;;0.86;90.03;102275.99;112384;1249;23259;-54
2024/01/22 09:32:59;;;;;;;23.90;14.50;;;;;;;0.87;89.78;102269.09;112429;1249;23190;-47
2024/01/22 09:35:48;;;;;;;25.70;15.40;;;;;;;0.86;89.64;102271.42;112295;1249;23218;-57
2024/01/22 09:38:22;;;;;;;25.40;14.80;;;;;;;0.92;89.71;102268.27;112279;1249;22327;-47
2024/01/22 09:40:55;;;;;;;25.90;16.80;;;;;;;0.96;89.33;102258.17;112542;1240;22412;-44
2024/01/22 09:43:27;;;;;;;33.30;19.40;;;;;;;0.99;88.74;102252.05;112397;1239;22902;-46
2024/01/22 09:50:56;;;;;;;28.60;16.10;;;;;;;0.85;87.94;102246.42;112578;1240;22546;-46
2024/01/22 09:54:49;;;;;;;29.50;17.20;;;;;;;0.71;87.75;102243.41;112629;1249;22456;-46
2024/01/22 09:58:09;;;;;;;31.00;17.80;;;;;;;0.65;88.44;102246.77;112608;1249;22439;-46
2024/01/22 10:00:55;;;;;;;29.00;18.00;;;;;;;0.63;88.47;102240.73;112706;1249;23134;-55
2024/01/22 10:03:53;;;;;;;29.10;17.20;;;;;;;0.69;88.92;102243.25;112647;1249;22382;-46
2024/01/22 10:06:21;;;;;;;33.20;17.60;;;;;;;0.83;88.82;102244.19;112653;1249;22380;-55
2024/01/22 10:08:57;;;;;;;26.50;16.50;;;;;;;0.87;88.42;102241.06;112663;1238;22424;-48
2024/01/22 10:15:17;;;;;;;31.10;18.40;;;;;;;0.96;87.99;102248.56;112122;1249;22385;-57
2024/01/22 10:44:22;;;;;;;25.30;15.90;;;;;;;1.30;83.47;102216.36;112816;1249;22453;-47
2024/01/22 10:56:30;;;;;;;27.10;15.00;;;;;;;0.96;83.22;102217.81;112813;1249;23068;-53
2024/01/22 11:00:29;;;;;;;27.50;16.10;;;;;;;0.74;82.75;102216.10;112834;1249;23176;-53
2024/01/22 11:40:52;;;;;;;27.00;16.80;;;;;;;-0.22;85.00;102159.11;112647;1249;23182;-52
2024/01/22 11:44:33;;;;;;;;;;;;;;;-0.34;86.35;102155.63;112549;1249;22382;-53
2024/01/22 11:47:49;;;;;;;33.70;17.10;;;;;;;-0.47;87.18;102152.27;112606;1249;22386;-52
2024/01/22 11:50:22;;;;;;;20.10;12.50;;;;;;;-0.54;86.90;102144.23;112634;1249;23167;-53
2024/01/22 11:52:49;;;;;;;24.00;13.90;;;;;;;-0.52;85.98;102148.30;112615;1249;22266;-53
2024/01/22 11:55:49;;;;;;;27.90;15.30;;;;;;;-0.46;86.40;102152.70;112716;1249;22410;-53
2024/01/22 11:59:00;;;;;;;35.40;18.80;;;;;;;-0.42;86.93;102151.28;112594;1249;22368;-53
2024/01/22 12:01:57;;;;;;;27.50;15.60;;;;;;;-0.40;86.80;102153.36;112604;1249;23038;-53
2024/01/22 12:05:40;;;;;;;;;;;;;;;-0.44;86.70;102156.66;112788;1249;22359;-50
2024/01/22 12:08:45;;;;;;;16.00;10.30;;;;;;;-0.45;86.80;102161.70;112849;1249;22270;-49
2024/01/22 12:11:17;;;;;;;25.00;14.80;;;;;;;-0.47;86.72;102165.02;112805;1249;22828;-49
2024/01/22 12:13:44;;;;;;;22.90;14.20;;;;;;;-0.48;85.56;102165.95;112827;1249;22480;-48
2024/01/22 12:16:18;;;;;;;28.40;15.50;;;;;;;-0.52;85.45;102174.05;112719;1249;22366;-49
2024/01/22 12:18:45;;;;;;;24.90;15.50;;;;;;;-0.56;85.63;102174.63;112680;1249;23617;-48
2024/01/22 12:21:12;;;;;;;26.00;15.50;;;;;;;-0.58;86.24;102170.20;112777;1249;22406;-48
2024/01/22 12:23:39;;;;;;;26.40;15.60;;;;;;;-0.54;86.66;102164.12;112802;1249;22268;-47
2024/01/22 12:26:13;;;;;;;31.80;17.40;;;;;;;-0.53;87.06;102160.79;112741;1249;22356;-47
2024/01/22 12:28:40;;;;;;;29.80;17.20;;;;;;;-0.57;87.33;102159.98;112674;1249;23157;-47
2024/01/22 12:31:08;;;;;;;26.20;14.10;;;;;;;-0.61;86.97;102163.62;112761;1249;22377;-48
2024/01/22 12:33:35;;;;;;;27.00;15.00;;;;;;;-0.68;86.70;102164.27;112735;1249;22695;-46
2024/01/22 12:36:09;;;;;;;24.40;13.90;;;;;;;-0.79;86.62;102159.71;112693;1249;23174;-49
2024/01/22 12:38:51;;;;;;;24.50;14.50;;;;;;;-0.85;87.42;102156.48;112735;1249;22396;-47
2024/01/22 12:41:20;;;;;;;26.90;15.10;;;;;;;-0.89;87.74;102152.25;112653;1249;22323;-47
2024/01/22 12:43:47;;;;;;;27.60;17.10;;;;;;;-0.85;88.43;102155.33;112802;1249;22411;-47
2024/01/22 12:46:19;;;;;;;32.90;16.40;;;;;;;-0.81;88.95;102148.98;112803;1249;22413;-49
2024/01/22 12:48:47;;;;;;;30.00;16.50;;;;;;;-0.81;89.23;102149.96;112596;1249;22182;-49
2024/01/22 12:51:16;;;;;;;30.00;16.20;;;;;;;-0.83;89.32;102141.58;112653;1249;22266;-49
2024/01/22 12:53:45;;;;;;;29.50;16.90;;;;;;;-0.87;89.32;102137.63;112829;1249;22825;-52
2024/01/22 12:56:12;;;;;;;27.90;15.80;;;;;;;-0.92;89.66;102138.69;112683;1249;23072;-52
2024/01/22 12:58:41;;;;;;;37.40;18.20;;;;;;;-0.96;89.82;102138.02;112745;1249;22465;-54
2024/01/22 13:01:10;;;;;;;29.90;16.90;;;;;;;-1.01;90.38;102131.33;112754;1249;22306;-53
2024/01/22 13:03:38;;;;;;;28.30;16.10;;;;;;;-1.03;90.69;102126.02;112782;1249;22385;-53
2024/01/22 13:06:05;;;;;;;27.80;14.50;;;;;;;-1.04;90.21;102128.14;112828;1249;22371;-49
2024/01/22 13:08:32;;;;;;;26.80;15.50;;;;;;;-1.05;89.73;102140.09;112759;1249;22406;-47
2024/01/22 13:11:02;;;;;;;32.00;16.60;;;;;;;-1.07;90.34;102140.60;112780;1249;22859;-49
2024/01/22 13:13:30;;;;;;;25.40;14.20;;;;;;;-1.14;89.49;102136.81;112859;1249;22393;-48
2024/01/22 13:15:57;;;;;;;28.50;16.30;;;;;;;-1.20;89.57;102131.95;112767;1249;22487;-48
2024/01/22 13:18:42;;;;;;;27.10;15.30;;;;;;;-1.22;90.37;102130.88;112810;1249;22336;-48
2024/01/22 13:21:11;;;;;;;28.50;15.50;;;;;;;-1.26;90.90;102122.19;112733;1249;23270;-49
2024/01/22 13:23:38;;;;;;;28.00;15.30;;;;;;;-1.29;89.73;102125.02;112721;1249;23082;-48
2024/01/22 13:26:05;;;;;;;21.90;13.10;;;;;;;-1.35;88.12;102123.06;112762;1249;22410;-48
2024/01/22 13:28:32;;;;;;;16.00;11.10;;;;;;;-1.39;86.88;102121.36;112854;1249;22509;-47
2024/01/22 13:30:59;;;;;;;22.60;11.70;;;;;;;-1.43;85.48;102120.73;112871;1249;22429;-47
2024/01/22 13:33:26;;;;;;;20.30;11.80;;;;;;;-1.48;85.20;102115.89;112874;1249;22408;-48
2024/01/22 13:35:54;;;;;;;18.70;11.20;;;;;;;-1.54;84.97;102113.40;112884;1249;22361;-47
2024/01/22 13:38:21;;;;;;;21.50;10.10;;;;;;;-1.62;84.48;102112.75;112868;1249;22416;-48
2024/01/22 13:40:47;;;;;;;22.00;11.60;;;;;;;-1.69;84.92;102109.63;112855;1249;22407;-52
2024/01/22 13:43:14;;;;;;;17.60;11.30;;;;;;;-1.73;85.23;102104.92;112833;1249;22366;-53
2024/01/22 13:45:41;;;;;;;20.40;11.10;;;;;;;-1.74;85.67;102105.29;112837;1249;23209;-52
2024/01/22 13:48:10;;;;;;;18.90;12.10;;;;;;;-1.73;85.33;102104.71;112841;1249;22419;-48
2024/01/22 13:50:37;;;;;;;16.60;10.70;;;;;;;-1.72;84.87;102099.11;112893;1249;22271;-47
2024/01/22 13:53:04;;;;;;;17.20;11.10;;;;;;;-1.73;85.10;102094.66;112903;1249;22403;-47
2024/01/22 13:55:35;;;;;;;23.10;11.60;;;;;;;-1.72;84.85;102102.95;112924;1249;23854;-53
2024/01/22 13:58:01;;;;;;;18.20;10.70;;;;;;;-1.72;84.25;102111.48;112957;1249;22234;-53
2024/01/22 14:00:30;;;;;;;18.50;11.30;;;;;;;-1.75;83.90;102111.77;112997;1249;22351;-53
2024/01/22 14:02:57;;;;;;;19.50;10.80;;;;;;;-1.77;84.50;102113.79;112986;1249;22505;-52
2024/01/22 14:05:24;;;;;;;20.70;11.10;;;;;;;-1.78;84.59;102111.16;113001;1249;22376;-52
2024/01/22 14:07:50;;;;;;;17.20;11.10;;;;;;;-1.79;84.90;102107.45;113009;1249;22402;-52
2024/01/22 14:10:17;;;;;;;20.40;11.60;;;;;;;-1.82;85.06;102109.81;113001;1249;22147;-53
2024/01/22 14:12:44;;;;;;;19.30;11.50;;;;;;;-1.84;84.94;102098.20;112937;1249;22394;-53
2024/01/22 14:15:12;;;;;;;16.80;10.60;;;;;;;-1.83;85.36;102100.81;112951;1249;22165;-53
2024/01/22 14:17:39;;;;;;;20.80;10.90;;;;;;;-1.84;85.53;102105.41;112958;1249;22374;-49
2024/01/22 14:20:07;;;;;;;19.80;11.50;;;;;;;-1.84;85.55;102101.45;112970;1249;22157;-52
2024/01/22 14:22:36;;;;;;;22.20;13.10;;;;;;;-1.83;85.75;102092.42;112893;1249;22417;-52
2024/01/22 14:25:06;;;;;;;21.50;12.30;;;;;;;-1.83;85.95;102088.31;112954;1249;22998;-47
2024/01/22 14:27:33;;;;;;;24.30;14.20;;;;;;;-1.84;86.25;102086.60;112969;1249;22403;-48
2024/01/22 14:30:01;;;;;;;23.10;13.40;;;;;;;-1.84;87.10;102084.19;112960;1249;22376;-53
2024/01/22 14:32:30;;;;;;;25.00;13.70;;;;;;;-1.82;87.36;102080.92;113020;1249;22438;-47
2024/01/22 14:34:59;;;;;;;23.20;14.30;;;;;;;-1.84;88.06;102079.42;113011;1249;22462;-47
2024/01/22 14:37:26;;;;;;;23.70;14.10;;;;;;;-1.87;87.37;102083.94;113018;1249;22396;-51
2024/01/22 14:39:53;;;;;;;26.00;15.50;;;;;;;-1.90;87.32;102088.84;113028;1249;22407;-54
2024/01/22 14:42:21;;;;;;;26.10;15.40;;;;;;;-1.93;88.06;102082.08;113014;1249;23146;-52
2024/01/22 14:44:48;;;;;;;25.70;14.60;;;;;;;-1.95;88.37;102079.76;113006;1249;23035;-48
2024/01/22 14:47:16;;;;;;;29.10;15.80;;;;;;;-1.97;88.85;102084.56;113019;1249;22341;-47
2024/01/22 14:49:43;;;;;;;25.00;14.80;;;;;;;-2.00;89.01;102088.22;112996;1249;22996;-48
2024/01/22 14:52:10;;;;;;;27.60;16.60;;;;;;;-2.02;89.57;102096.30;113003;1249;22357;-53
2024/01/22 14:54:38;;;;;;;29.70;16.00;;;;;;;-2.03;89.55;102086.58;112963;1249;22391;-48
2024/01/22 14:57:04;;;;;;;23.70;14.60;;;;;;;-2.05;88.61;102094.12;113000;1249;22374;-54
2024/01/22 14:59:33;;;;;;;24.70;13.60;;;;;;;-2.07;88.01;102091.77;113009;1249;22131;-49
2024/01/22 15:02:00;;;;;;;21.70;13.00;;;;;;;-2.07;87.66;102092.25;112992;1249;22386;-53
2024/01/22 15:04:27;;;;;;;25.40;14.00;;;;;;;-2.10;87.69;102088.13;113035;1249;22444;-47
2024/01/22 15:06:55;;;;;;;22.00;14.10;;;;;;;-2.11;87.24;102089.20;113017;1249;22255;-48
2024/01/22 15:09:22;;;;;;;24.60;13.90;;;;;;;-2.13;87.15;102086.89;113007;1249;22366;-53
2024/01/22 15:11:49;;;;;;;21.40;13.60;;;;;;;-2.15;87.33;102082.08;113021;1249;22353;-48
2024/01/22 15:14:17;;;;;;;30.30;16.10;;;;;;;-2.16;87.84;102078.06;113059;1249;22409;-53
2024/01/22 15:16:46;;;;;;;27.60;16.20;;;;;;;-2.17;88.52;102084.17;113055;1249;22352;-48
